sensor_id;sensor_type;location;lat;lon;timestamp;P1;durP1;ratioP1;P2;durP2;ratioP2
25279;SDS011;13225;47.804;12.116;2022-11-15T00:00:33;15.40;;;7.50;;
25279;SDS011;13225;47.804;12.116;2022-11-15T00:02:59;9.90;;;6.30;;
25279;SDS011;13225;47.804;12.116;2022-11-15T00:05:24;11.23;;;5.68;;
25279;SDS011;13225;47.804;12.116;2022-11-15T00:07:50;12.77;;;7.07;;
25279;SDS011;13225;47.804;12.116;2022-11-15T00:10:16;12.63;;;6.47;;
25279;SDS011;13225;47.804;12.116;2022-11-15T00:12:41;11.98;;;5.97;;
25279;SDS011;13225;47.804;12.116;2022-11-15T00:15:07;7.68;;;5.03;;
25279;SDS011;13225;47.804;12.116;2022-11-15T00:17:33;10.65;;;5.68;;
25279;SDS011;13225;47.804;12.116;2022-11-15T00:19:58;9.30;;;6.07;;
25279;SDS011;13225;47.804;12.116;2022-11-15T00:22:24;10.18;;;6.38;;
25279;SDS011;13225;47.804;12.116;2022-11-15T00:24:49;14.88;;;6.35;;
25279;SDS011;13225;47.804;12.116;2022-11-15T00:27:15;13.77;;;7.22;;
25279;SDS011;13225;47.804;12.116;2022-11-15T00:29:41;14.88;;;8.57;;
25279;SDS011;13225;47.804;12.116;2022-11-15T00:32:09;16.13;;;9.25;;
25279;SDS011;13225;47.804;12.116;2022-11-15T00:34:35;20.27;;;9.70;;
25279;SDS011;13225;47.804;12.116;2022-11-15T00:37:01;14.48;;;8.88;;
25279;SDS011;13225;47.804;12.116;2022-11-15T00:39:26;12.63;;;7.70;;
25279;SDS011;13225;47.804;12.116;2022-11-15T00:41:52;13.85;;;7.50;;
25279;SDS011;13225;47.804;12.116;2022-11-15T00:44:19;8.27;;;5.80;;
25279;SDS011;13225;47.804;12.116;2022-11-15T00:46:45;9.27;;;5.80;;
25279;SDS011;13225;47.804;12.116;2022-11-15T00:49:15;10.55;;;5.53;;
25279;SDS011;13225;47.804;12.116;2022-11-15T00:51:41;7.38;;;4.90;;
25279;SDS011;13225;47.804;12.116;2022-11-15T00:54:06;8.15;;;5.10;;
25279;SDS011;13225;47.804;12.116;2022-11-15T00:56:32;6.05;;;3.92;;
25279;SDS011;13225;47.804;12.116;2022-11-15T00:58:57;8.05;;;4.47;;
25279;SDS011;13225;47.804;12.116;2022-11-15T01:01:25;11.48;;;5.18;;
25279;SDS011;13225;47.804;12.116;2022-11-15T01:03:51;6.47;;;4.40;;
25279;SDS011;13225;47.804;12.116;2022-11-15T01:06:16;9.50;;;4.70;;
25279;SDS011;13225;47.804;12.116;2022-11-15T01:08:43;7.45;;;4.30;;
25279;SDS011;13225;47.804;12.116;2022-11-15T01:11:10;7.38;;;4.50;;
25279;SDS011;13225;47.804;12.116;2022-11-15T01:13:37;7.20;;;4.63;;
25279;SDS011;13225;47.804;12.116;2022-11-15T01:16:15;8.07;;;5.45;;
25279;SDS011;13225;47.804;12.116;2022-11-15T01:18:43;10.70;;;5.47;;
25279;SDS011;13225;47.804;12.116;2022-11-15T01:21:10;11.82;;;6.38;;
25279;SDS011;13225;47.804;12.116;2022-11-15T01:23:37;9.70;;;5.72;;
25279;SDS011;13225;47.804;12.116;2022-11-15T01:26:04;7.28;;;4.95;;
25279;SDS011;13225;47.804;12.116;2022-11-15T01:28:31;10.60;;;5.75;;
25279;SDS011;13225;47.804;12.116;2022-11-15T01:30:59;9.77;;;6.50;;
25279;SDS011;13225;47.804;12.116;2022-11-15T01:33:26;13.48;;;6.88;;
25279;SDS011;13225;47.804;12.116;2022-11-15T01:35:52;11.65;;;6.90;;
25279;SDS011;13225;47.804;12.116;2022-11-15T01:38:18;14.07;;;7.93;;
25279;SDS011;13225;47.804;12.116;2022-11-15T01:40:43;12.30;;;7.95;;
25279;SDS011;13225;47.804;12.116;2022-11-15T01:43:25;15.00;;;8.52;;
25279;SDS011;13225;47.804;12.116;2022-11-15T01:46:04;13.60;;;7.75;;
25279;SDS011;13225;47.804;12.116;2022-11-15T01:48:44;17.00;;;9.05;;
25279;SDS011;13225;47.804;12.116;2022-11-15T01:51:10;18.08;;;8.88;;
25279;SDS011;13225;47.804;12.116;2022-11-15T01:53:39;14.82;;;8.30;;
25279;SDS011;13225;47.804;12.116;2022-11-15T01:56:08;16.08;;;8.52;;
25279;SDS011;13225;47.804;12.116;2022-11-15T01:58:37;13.25;;;8.38;;
25279;SDS011;13225;47.804;12.116;2022-11-15T02:01:03;13.38;;;9.32;;
25279;SDS011;13225;47.804;12.116;2022-11-15T02:03:41;14.05;;;8.93;;
25279;SDS011;13225;47.804;12.116;2022-11-15T02:06:13;15.05;;;9.30;;
25279;SDS011;13225;47.804;12.116;2022-11-15T02:08:39;14.57;;;8.63;;
25279;SDS011;13225;47.804;12.116;2022-11-15T02:11:09;18.45;;;10.50;;
25279;SDS011;13225;47.804;12.116;2022-11-15T02:13:35;16.80;;;9.90;;
25279;SDS011;13225;47.804;12.116;2022-11-15T02:16:05;17.95;;;10.68;;
25279;SDS011;13225;47.804;12.116;2022-11-15T02:18:49;16.95;;;10.20;;
25279;SDS011;13225;47.804;12.116;2022-11-15T02:29:31;17.70;;;10.70;;
25279;SDS011;13225;47.804;12.116;2022-11-15T02:32:25;17.38;;;10.95;;
25279;SDS011;13225;47.804;12.116;2022-11-15T02:37:48;17.20;;;10.32;;
25279;SDS011;13225;47.804;12.116;2022-11-15T02:40:27;17.88;;;11.20;;
25279;SDS011;13225;47.804;12.116;2022-11-15T02:43:19;18.52;;;11.18;;
25279;SDS011;13225;47.804;12.116;2022-11-15T02:46:31;19.63;;;11.43;;
25279;SDS011;13225;47.804;12.116;2022-11-15T02:49:20;19.95;;;11.60;;
25279;SDS011;13225;47.804;12.116;2022-11-15T02:51:49;21.67;;;12.68;;
25279;SDS011;13225;47.804;12.116;2022-11-15T02:54:21;23.05;;;11.90;;
25279;SDS011;13225;47.804;12.116;2022-11-15T02:56:49;20.23;;;11.32;;
25279;SDS011;13225;47.804;12.116;2022-11-15T02:59:38;22.83;;;12.40;;
25279;SDS011;13225;47.804;12.116;2022-11-15T03:16:05;21.27;;;12.52;;
25279;SDS011;13225;47.804;12.116;2022-11-15T03:18:59;24.85;;;12.77;;
25279;SDS011;13225;47.804;12.116;2022-11-15T03:21:39;25.08;;;14.07;;
25279;SDS011;13225;47.804;12.116;2022-11-15T03:24:06;23.65;;;13.93;;
25279;SDS011;13225;47.804;12.116;2022-11-15T03:26:33;24.65;;;13.45;;
25279;SDS011;13225;47.804;12.116;2022-11-15T03:29:05;26.92;;;14.98;;
25279;SDS011;13225;47.804;12.116;2022-11-15T03:31:48;23.77;;;13.30;;
25279;SDS011;13225;47.804;12.116;2022-11-15T03:37:12;37.97;;;14.95;;
25279;SDS011;13225;47.804;12.116;2022-11-15T03:39:40;37.03;;;14.15;;
25279;SDS011;13225;47.804;12.116;2022-11-15T03:42:21;28.58;;;13.55;;
25279;SDS011;13225;47.804;12.116;2022-11-15T03:48:10;25.95;;;11.63;;
25279;SDS011;13225;47.804;12.116;2022-11-15T03:50:51;25.80;;;12.40;;
25279;SDS011;13225;47.804;12.116;2022-11-15T03:53:18;32.80;;;12.52;;
25279;SDS011;13225;47.804;12.116;2022-11-15T03:55:43;28.35;;;13.27;;
25279;SDS011;13225;47.804;12.116;2022-11-15T03:58:09;23.67;;;12.57;;
25279;SDS011;13225;47.804;12.116;2022-11-15T04:00:35;23.20;;;13.70;;
25279;SDS011;13225;47.804;12.116;2022-11-15T04:03:00;23.17;;;12.77;;
25279;SDS011;13225;47.804;12.116;2022-11-15T04:05:29;21.23;;;12.15;;
25279;SDS011;13225;47.804;12.116;2022-11-15T04:07:55;23.48;;;11.35;;
25279;SDS011;13225;47.804;12.116;2022-11-15T04:10:20;19.13;;;10.70;;
25279;SDS011;13225;47.804;12.116;2022-11-15T04:12:46;20.42;;;13.23;;
25279;SDS011;13225;47.804;12.116;2022-11-15T04:15:13;22.45;;;12.40;;
25279;SDS011;13225;47.804;12.116;2022-11-15T04:17:42;20.75;;;11.95;;
25279;SDS011;13225;47.804;12.116;2022-11-15T04:20:22;21.95;;;12.38;;
25279;SDS011;13225;47.804;12.116;2022-11-15T04:23:12;20.05;;;11.73;;
25279;SDS011;13225;47.804;12.116;2022-11-15T04:25:59;23.95;;;12.07;;
25279;SDS011;13225;47.804;12.116;2022-11-15T04:28:27;22.40;;;13.05;;
25279;SDS011;13225;47.804;12.116;2022-11-15T04:30:53;20.60;;;12.00;;
25279;SDS011;13225;47.804;12.116;2022-11-15T04:33:19;23.40;;;13.82;;
25279;SDS011;13225;47.804;12.116;2022-11-15T04:35:44;23.38;;;13.23;;
25279;SDS011;13225;47.804;12.116;2022-11-15T04:38:30;21.15;;;12.48;;
25279;SDS011;13225;47.804;12.116;2022-11-15T04:40:55;27.52;;;14.98;;
25279;SDS011;13225;47.804;12.116;2022-11-15T04:43:22;24.17;;;13.15;;
25279;SDS011;13225;47.804;12.116;2022-11-15T04:45:48;19.48;;;11.63;;
25279;SDS011;13225;47.804;12.116;2022-11-15T04:48:13;18.17;;;10.52;;
25279;SDS011;13225;47.804;12.116;2022-11-15T04:50:39;21.15;;;12.75;;
25279;SDS011;13225;47.804;12.116;2022-11-15T04:53:04;22.17;;;13.05;;
25279;SDS011;13225;47.804;12.116;2022-11-15T04:55:30;22.48;;;13.05;;
25279;SDS011;13225;47.804;12.116;2022-11-15T04:57:57;20.77;;;11.65;;
25279;SDS011;13225;47.804;12.116;2022-11-15T05:00:26;20.83;;;11.93;;
25279;SDS011;13225;47.804;12.116;2022-11-15T05:02:55;24.58;;;12.07;;
25279;SDS011;13225;47.804;12.116;2022-11-15T05:05:40;19.95;;;12.07;;
25279;SDS011;13225;47.804;12.116;2022-11-15T05:08:06;25.17;;;14.07;;
25279;SDS011;13225;47.804;12.116;2022-11-15T05:10:31;25.98;;;15.20;;
25279;SDS011;13225;47.804;12.116;2022-11-15T05:12:57;26.45;;;14.85;;
25279;SDS011;13225;47.804;12.116;2022-11-15T05:15:22;27.58;;;16.15;;
25279;SDS011;13225;47.804;12.116;2022-11-15T05:17:48;20.27;;;11.93;;
25279;SDS011;13225;47.804;12.116;2022-11-15T05:20:14;30.48;;;17.60;;
25279;SDS011;13225;47.804;12.116;2022-11-15T05:22:39;27.88;;;16.92;;
25279;SDS011;13225;47.804;12.116;2022-11-15T05:25:05;28.70;;;15.50;;
25279;SDS011;13225;47.804;12.116;2022-11-15T05:27:32;26.65;;;15.55;;
25279;SDS011;13225;47.804;12.116;2022-11-15T05:29:58;25.13;;;14.93;;
25279;SDS011;13225;47.804;12.116;2022-11-15T05:32:24;28.80;;;17.35;;
25279;SDS011;13225;47.804;12.116;2022-11-15T05:34:50;41.03;;;22.58;;
25279;SDS011;13225;47.804;12.116;2022-11-15T05:37:16;43.53;;;23.02;;
25279;SDS011;13225;47.804;12.116;2022-11-15T05:39:42;31.70;;;17.25;;
25279;SDS011;13225;47.804;12.116;2022-11-15T05:42:09;29.67;;;17.83;;
25279;SDS011;13225;47.804;12.116;2022-11-15T05:44:38;31.98;;;17.42;;
25279;SDS011;13225;47.804;12.116;2022-11-15T05:47:07;26.52;;;14.82;;
25279;SDS011;13225;47.804;12.116;2022-11-15T05:49:36;26.25;;;14.35;;
25279;SDS011;13225;47.804;12.116;2022-11-15T05:52:05;25.23;;;14.50;;
25279;SDS011;13225;47.804;12.116;2022-11-15T05:54:34;25.98;;;13.43;;
25279;SDS011;13225;47.804;12.116;2022-11-15T05:57:01;24.00;;;13.13;;
25279;SDS011;13225;47.804;12.116;2022-11-15T05:59:28;30.92;;;13.40;;
25279;SDS011;13225;47.804;12.116;2022-11-15T06:01:55;20.30;;;10.27;;
25279;SDS011;13225;47.804;12.116;2022-11-15T06:04:22;28.48;;;13.52;;
25279;SDS011;13225;47.804;12.116;2022-11-15T06:06:47;24.85;;;12.70;;
25279;SDS011;13225;47.804;12.116;2022-11-15T06:09:13;23.60;;;11.90;;
25279;SDS011;13225;47.804;12.116;2022-11-15T06:11:38;20.77;;;10.93;;
25279;SDS011;13225;47.804;12.116;2022-11-15T06:14:04;21.08;;;11.05;;
25279;SDS011;13225;47.804;12.116;2022-11-15T06:16:29;20.05;;;9.88;;
25279;SDS011;13225;47.804;12.116;2022-11-15T06:18:55;20.65;;;11.75;;
25279;SDS011;13225;47.804;12.116;2022-11-15T06:21:21;22.15;;;12.00;;
25279;SDS011;13225;47.804;12.116;2022-11-15T06:23:46;25.08;;;12.63;;
25279;SDS011;13225;47.804;12.116;2022-11-15T06:26:12;22.48;;;13.10;;
25279;SDS011;13225;47.804;12.116;2022-11-15T06:28:37;26.77;;;13.75;;
25279;SDS011;13225;47.804;12.116;2022-11-15T06:31:07;21.23;;;12.13;;
25279;SDS011;13225;47.804;12.116;2022-11-15T06:33:35;22.23;;;13.35;;
25279;SDS011;13225;47.804;12.116;2022-11-15T06:36:04;23.42;;;11.68;;
25279;SDS011;13225;47.804;12.116;2022-11-15T06:38:32;19.42;;;11.93;;
25279;SDS011;13225;47.804;12.116;2022-11-15T06:41:05;20.60;;;12.40;;
25279;SDS011;13225;47.804;12.116;2022-11-15T06:43:31;23.77;;;13.23;;
25279;SDS011;13225;47.804;12.116;2022-11-15T06:46:01;25.70;;;14.00;;
25279;SDS011;13225;47.804;12.116;2022-11-15T06:48:28;23.30;;;12.98;;
25279;SDS011;13225;47.804;12.116;2022-11-15T06:50:55;25.67;;;14.57;;
25279;SDS011;13225;47.804;12.116;2022-11-15T06:53:21;21.83;;;13.10;;
25279;SDS011;13225;47.804;12.116;2022-11-15T06:55:47;24.55;;;14.75;;
25279;SDS011;13225;47.804;12.116;2022-11-15T06:58:13;22.90;;;11.50;;
25279;SDS011;13225;47.804;12.116;2022-11-15T07:00:40;23.25;;;13.52;;
25279;SDS011;13225;47.804;12.116;2022-11-15T07:03:05;27.45;;;14.52;;
25279;SDS011;13225;47.804;12.116;2022-11-15T07:05:31;20.38;;;10.25;;
25279;SDS011;13225;47.804;12.116;2022-11-15T07:07:57;27.80;;;14.75;;
25279;SDS011;13225;47.804;12.116;2022-11-15T07:10:24;29.02;;;16.70;;
25279;SDS011;13225;47.804;12.116;2022-11-15T07:12:51;30.88;;;16.88;;
25279;SDS011;13225;47.804;12.116;2022-11-15T07:15:17;33.83;;;17.42;;
25279;SDS011;13225;47.804;12.116;2022-11-15T07:17:44;31.63;;;15.45;;
25279;SDS011;13225;47.804;12.116;2022-11-15T07:20:10;31.15;;;15.65;;
25279;SDS011;13225;47.804;12.116;2022-11-15T07:22:38;48.30;;;20.05;;
25279;SDS011;13225;47.804;12.116;2022-11-15T07:25:04;42.45;;;18.98;;
25279;SDS011;13225;47.804;12.116;2022-11-15T07:27:29;19.98;;;11.52;;
25279;SDS011;13225;47.804;12.116;2022-11-15T07:29:55;15.48;;;8.73;;
25279;SDS011;13225;47.804;12.116;2022-11-15T07:32:20;32.05;;;14.20;;
25279;SDS011;13225;47.804;12.116;2022-11-15T07:34:46;39.92;;;16.30;;
25279;SDS011;13225;47.804;12.116;2022-11-15T07:37:12;17.60;;;10.52;;
25279;SDS011;13225;47.804;12.116;2022-11-15T07:39:37;26.90;;;12.07;;
25279;SDS011;13225;47.804;12.116;2022-11-15T07:42:03;55.67;;;20.20;;
25279;SDS011;13225;47.804;12.116;2022-11-15T07:44:47;17.92;;;10.00;;
25279;SDS011;13225;47.804;12.116;2022-11-15T07:47:13;26.77;;;12.70;;
25279;SDS011;13225;47.804;12.116;2022-11-15T07:49:39;29.40;;;14.48;;
25279;SDS011;13225;47.804;12.116;2022-11-15T07:52:04;20.27;;;11.32;;
25279;SDS011;13225;47.804;12.116;2022-11-15T07:54:30;17.35;;;10.55;;
25279;SDS011;13225;47.804;12.116;2022-11-15T07:56:55;13.55;;;8.05;;
25279;SDS011;13225;47.804;12.116;2022-11-15T07:59:21;12.98;;;8.90;;
25279;SDS011;13225;47.804;12.116;2022-11-15T08:01:46;14.82;;;8.68;;
25279;SDS011;13225;47.804;12.116;2022-11-15T08:04:12;14.15;;;7.70;;
25279;SDS011;13225;47.804;12.116;2022-11-15T08:06:38;12.45;;;7.47;;
25279;SDS011;13225;47.804;12.116;2022-11-15T08:09:03;10.07;;;6.20;;
25279;SDS011;13225;47.804;12.116;2022-11-15T08:11:29;11.88;;;6.22;;
25279;SDS011;13225;47.804;12.116;2022-11-15T08:13:54;11.98;;;7.47;;
25279;SDS011;13225;47.804;12.116;2022-11-15T08:16:20;10.20;;;6.50;;
25279;SDS011;13225;47.804;12.116;2022-11-15T08:18:46;10.40;;;6.50;;
25279;SDS011;13225;47.804;12.116;2022-11-15T08:21:12;11.40;;;7.05;;
25279;SDS011;13225;47.804;12.116;2022-11-15T08:23:43;11.88;;;7.25;;
25279;SDS011;13225;47.804;12.116;2022-11-15T08:26:09;10.98;;;7.53;;
25279;SDS011;13225;47.804;12.116;2022-11-15T08:28:35;12.95;;;8.23;;
25279;SDS011;13225;47.804;12.116;2022-11-15T08:31:02;12.20;;;8.18;;
25279;SDS011;13225;47.804;12.116;2022-11-15T08:33:29;11.52;;;6.32;;
25279;SDS011;13225;47.804;12.116;2022-11-15T08:35:57;11.77;;;7.88;;
25279;SDS011;13225;47.804;12.116;2022-11-15T08:38:23;14.35;;;8.43;;
25279;SDS011;13225;47.804;12.116;2022-11-15T08:40:52;13.40;;;8.27;;
25279;SDS011;13225;47.804;12.116;2022-11-15T08:43:26;11.98;;;7.28;;
25279;SDS011;13225;47.804;12.116;2022-11-15T08:45:51;13.02;;;7.07;;
25279;SDS011;13225;47.804;12.116;2022-11-15T08:48:21;11.38;;;6.18;;
25279;SDS011;13225;47.804;12.116;2022-11-15T08:50:46;18.27;;;10.57;;
25279;SDS011;13225;47.804;12.116;2022-11-15T08:53:12;13.55;;;9.05;;
25279;SDS011;13225;47.804;12.116;2022-11-15T08:55:38;14.68;;;9.18;;
25279;SDS011;13225;47.804;12.116;2022-11-15T08:58:04;11.38;;;7.30;;
25279;SDS011;13225;47.804;12.116;2022-11-15T09:00:30;14.55;;;9.70;;
25279;SDS011;13225;47.804;12.116;2022-11-15T09:02:56;12.27;;;8.77;;
25279;SDS011;13225;47.804;12.116;2022-11-15T09:05:21;14.10;;;8.68;;
25279;SDS011;13225;47.804;12.116;2022-11-15T09:07:47;14.13;;;8.80;;
25279;SDS011;13225;47.804;12.116;2022-11-15T09:10:17;15.43;;;9.43;;
25279;SDS011;13225;47.804;12.116;2022-11-15T09:12:42;14.05;;;9.50;;
25279;SDS011;13225;47.804;12.116;2022-11-15T09:15:08;13.95;;;9.20;;
25279;SDS011;13225;47.804;12.116;2022-11-15T09:17:34;14.55;;;9.32;;
25279;SDS011;13225;47.804;12.116;2022-11-15T09:19:59;12.02;;;8.10;;
25279;SDS011;13225;47.804;12.116;2022-11-15T09:22:25;14.85;;;8.35;;
25279;SDS011;13225;47.804;12.116;2022-11-15T09:24:51;11.98;;;8.32;;
25279;SDS011;13225;47.804;12.116;2022-11-15T09:27:16;10.95;;;7.05;;
25279;SDS011;13225;47.804;12.116;2022-11-15T09:29:42;11.60;;;7.53;;
25279;SDS011;13225;47.804;12.116;2022-11-15T09:32:07;15.27;;;8.95;;
25279;SDS011;13225;47.804;12.116;2022-11-15T09:34:33;13.02;;;8.35;;
25279;SDS011;13225;47.804;12.116;2022-11-15T09:36:59;14.27;;;8.77;;
25279;SDS011;13225;47.804;12.116;2022-11-15T09:39:24;13.35;;;8.52;;
25279;SDS011;13225;47.804;12.116;2022-11-15T09:50:06;12.60;;;7.40;;
25279;SDS011;13225;47.804;12.116;2022-11-15T09:52:34;12.15;;;7.68;;
25279;SDS011;13225;47.804;12.116;2022-11-15T09:55:03;12.15;;;7.05;;
25279;SDS011;13225;47.804;12.116;2022-11-15T09:57:31;10.90;;;6.30;;
25279;SDS011;13225;47.804;12.116;2022-11-15T10:00:20;8.45;;;5.50;;
25279;SDS011;13225;47.804;12.116;2022-11-15T10:03:42;9.27;;;6.70;;
25279;SDS011;13225;47.804;12.116;2022-11-15T10:05:53;10.00;;;6.90;;
25279;SDS011;13225;47.804;12.116;2022-11-15T10:11:20;14.25;;;8.80;;
25279;SDS011;13225;47.804;12.116;2022-11-15T10:13:51;13.13;;;7.07;;
25279;SDS011;13225;47.804;12.116;2022-11-15T10:21:21;10.57;;;5.78;;
25279;SDS011;13225;47.804;12.116;2022-11-15T10:23:53;6.88;;;5.15;;
25279;SDS011;13225;47.804;12.116;2022-11-15T10:26:19;10.48;;;5.93;;
25279;SDS011;13225;47.804;12.116;2022-11-15T10:28:46;6.75;;;5.13;;
25279;SDS011;13225;47.804;12.116;2022-11-15T10:31:22;7.00;;;5.38;;
25279;SDS011;13225;47.804;12.116;2022-11-15T10:33:50;7.70;;;5.03;;
25279;SDS011;13225;47.804;12.116;2022-11-15T10:41:29;6.32;;;5.07;;
25279;SDS011;13225;47.804;12.116;2022-11-15T10:46:45;8.55;;;5.28;;
25279;SDS011;13225;47.804;12.116;2022-11-15T10:49:26;6.60;;;4.88;;
25279;SDS011;13225;47.804;12.116;2022-11-15T10:52:00;5.82;;;4.18;;
25279;SDS011;13225;47.804;12.116;2022-11-15T10:54:34;5.00;;;4.18;;
25279;SDS011;13225;47.804;12.116;2022-11-15T10:57:08;4.25;;;3.45;;
25279;SDS011;13225;47.804;12.116;2022-11-15T10:59:42;7.13;;;3.78;;
25279;SDS011;13225;47.804;12.116;2022-11-15T11:02:26;5.95;;;4.05;;
25279;SDS011;13225;47.804;12.116;2022-11-15T11:05:04;4.93;;;3.15;;
25279;SDS011;13225;47.804;12.116;2022-11-15T11:07:54;4.80;;;3.80;;
25279;SDS011;13225;47.804;12.116;2022-11-15T11:10:28;4.85;;;3.97;;
25279;SDS011;13225;47.804;12.116;2022-11-15T11:12:54;4.35;;;3.42;;
25279;SDS011;13225;47.804;12.116;2022-11-15T11:15:20;7.45;;;4.97;;
25279;SDS011;13225;47.804;12.116;2022-11-15T11:20:30;4.60;;;3.00;;
25279;SDS011;13225;47.804;12.116;2022-11-15T11:31:39;3.08;;;2.78;;
25279;SDS011;13225;47.804;12.116;2022-11-15T11:45:48;4.13;;;3.13;;
25279;SDS011;13225;47.804;12.116;2022-11-15T11:48:44;4.07;;;2.83;;
25279;SDS011;13225;47.804;12.116;2022-11-15T11:51:30;4.32;;;2.60;;
25279;SDS011;13225;47.804;12.116;2022-11-15T11:54:12;5.43;;;3.08;;
25279;SDS011;13225;47.804;12.116;2022-11-15T11:56:39;3.20;;;2.85;;
25279;SDS011;13225;47.804;12.116;2022-11-15T12:02:27;4.18;;;2.72;;
25279;SDS011;13225;47.804;12.116;2022-11-15T12:05:01;5.85;;;2.97;;
25279;SDS011;13225;47.804;12.116;2022-11-15T12:07:48;5.15;;;2.72;;
25279;SDS011;13225;47.804;12.116;2022-11-15T12:10:23;4.60;;;3.03;;
25279;SDS011;13225;47.804;12.116;2022-11-15T12:13:15;3.47;;;2.53;;
25279;SDS011;13225;47.804;12.116;2022-11-15T12:15:59;3.55;;;2.15;;
25279;SDS011;13225;47.804;12.116;2022-11-15T12:18:36;2.60;;;1.92;;
25279;SDS011;13225;47.804;12.116;2022-11-15T12:21:07;3.85;;;2.70;;
25279;SDS011;13225;47.804;12.116;2022-11-15T12:23:46;3.70;;;2.70;;
25279;SDS011;13225;47.804;12.116;2022-11-15T12:26:30;3.38;;;2.83;;
25279;SDS011;13225;47.804;12.116;2022-11-15T12:29:39;2.78;;;2.30;;
25279;SDS011;13225;47.804;12.116;2022-11-15T12:31:57;2.58;;;2.22;;
25279;SDS011;13225;47.804;12.116;2022-11-15T12:36:53;2.72;;;2.47;;
25279;SDS011;13225;47.804;12.116;2022-11-15T12:39:19;3.00;;;2.70;;
25279;SDS011;13225;47.804;12.116;2022-11-15T13:22:49;2.97;;;2.47;;
25279;SDS011;13225;47.804;12.116;2022-11-15T13:34:28;3.75;;;2.65;;
25279;SDS011;13225;47.804;12.116;2022-11-15T13:37:00;4.75;;;2.65;;
25279;SDS011;13225;47.804;12.116;2022-11-15T13:39:33;6.00;;;2.95;;
25279;SDS011;13225;47.804;12.116;2022-11-15T13:42:02;7.28;;;3.88;;
25279;SDS011;13225;47.804;12.116;2022-11-15T13:44:29;9.27;;;4.05;;
25279;SDS011;13225;47.804;12.116;2022-11-15T13:47:04;6.18;;;3.75;;
25279;SDS011;13225;47.804;12.116;2022-11-15T13:52:06;3.72;;;3.10;;
25279;SDS011;13225;47.804;12.116;2022-11-15T13:54:43;8.63;;;3.03;;
25279;SDS011;13225;47.804;12.116;2022-11-15T13:57:26;6.38;;;3.70;;
25279;SDS011;13225;47.804;12.116;2022-11-15T13:59:59;5.05;;;3.03;;
25279;SDS011;13225;47.804;12.116;2022-11-15T14:02:29;4.07;;;2.42;;
25279;SDS011;13225;47.804;12.116;2022-11-15T14:07:25;4.32;;;2.63;;
25279;SDS011;13225;47.804;12.116;2022-11-15T14:09:52;4.10;;;2.83;;
25279;SDS011;13225;47.804;12.116;2022-11-15T14:12:31;9.00;;;3.38;;
25279;SDS011;13225;47.804;12.116;2022-11-15T14:15:00;7.93;;;3.83;;
25279;SDS011;13225;47.804;12.116;2022-11-15T14:17:45;8.55;;;3.05;;
25279;SDS011;13225;47.804;12.116;2022-11-15T14:20:27;4.32;;;2.58;;
25279;SDS011;13225;47.804;12.116;2022-11-15T14:22:57;4.50;;;2.70;;
25279;SDS011;13225;47.804;12.116;2022-11-15T14:25:28;3.47;;;2.75;;
25279;SDS011;13225;47.804;12.116;2022-11-15T14:30:43;12.70;;;3.00;;
25279;SDS011;13225;47.804;12.116;2022-11-15T14:35:46;8.07;;;3.17;;
25279;SDS011;13225;47.804;12.116;2022-11-15T14:38:12;8.57;;;2.72;;
25279;SDS011;13225;47.804;12.116;2022-11-15T14:40:39;6.85;;;3.25;;
25279;SDS011;13225;47.804;12.116;2022-11-15T14:43:07;14.25;;;3.50;;
25279;SDS011;13225;47.804;12.116;2022-11-15T14:45:37;11.10;;;4.07;;
25279;SDS011;13225;47.804;12.116;2022-11-15T14:48:03;8.00;;;4.28;;
25279;SDS011;13225;47.804;12.116;2022-11-15T14:50:29;13.52;;;5.30;;
25279;SDS011;13225;47.804;12.116;2022-11-15T14:52:56;15.07;;;6.35;;
25279;SDS011;13225;47.804;12.116;2022-11-15T14:55:24;17.15;;;7.30;;
25279;SDS011;13225;47.804;12.116;2022-11-15T14:57:52;12.70;;;6.40;;
25279;SDS011;13225;47.804;12.116;2022-11-15T15:00:18;17.05;;;7.53;;
25279;SDS011;13225;47.804;12.116;2022-11-15T15:02:45;14.45;;;6.82;;
25279;SDS011;13225;47.804;12.116;2022-11-15T15:05:12;18.83;;;7.43;;
25279;SDS011;13225;47.804;12.116;2022-11-15T15:07:43;16.38;;;7.43;;
25279;SDS011;13225;47.804;12.116;2022-11-15T15:10:09;16.08;;;6.88;;
25279;SDS011;13225;47.804;12.116;2022-11-15T15:12:35;15.07;;;6.95;;
25279;SDS011;13225;47.804;12.116;2022-11-15T15:15:01;15.70;;;7.40;;
25279;SDS011;13225;47.804;12.116;2022-11-15T15:17:26;44.50;;;24.88;;
25279;SDS011;13225;47.804;12.116;2022-11-15T15:19:52;28.60;;;12.77;;
25279;SDS011;13225;47.804;12.116;2022-11-15T15:22:18;33.45;;;11.52;;
25279;SDS011;13225;47.804;12.116;2022-11-15T15:24:46;25.83;;;7.38;;
25279;SDS011;13225;47.804;12.116;2022-11-15T15:27:15;38.92;;;11.90;;
25279;SDS011;13225;47.804;12.116;2022-11-15T15:29:41;39.00;;;11.35;;
25279;SDS011;13225;47.804;12.116;2022-11-15T15:32:06;36.15;;;13.32;;
25279;SDS011;13225;47.804;12.116;2022-11-15T15:34:33;113.60;;;36.15;;
25279;SDS011;13225;47.804;12.116;2022-11-15T15:39:55;37.00;;;13.25;;
25279;SDS011;13225;47.804;12.116;2022-11-15T15:42:22;30.63;;;13.00;;
25279;SDS011;13225;47.804;12.116;2022-11-15T15:44:48;32.65;;;14.57;;
25279;SDS011;13225;47.804;12.116;2022-11-15T15:47:15;29.20;;;13.25;;
25279;SDS011;13225;47.804;12.116;2022-11-15T15:49:45;55.78;;;23.58;;
25279;SDS011;13225;47.804;12.116;2022-11-15T15:52:12;41.72;;;19.45;;
25279;SDS011;13225;47.804;12.116;2022-11-15T15:54:38;34.97;;;15.40;;
25279;SDS011;13225;47.804;12.116;2022-11-15T15:57:04;71.78;;;29.45;;
25279;SDS011;13225;47.804;12.116;2022-11-15T15:59:31;84.32;;;32.40;;
25279;SDS011;13225;47.804;12.116;2022-11-15T16:01:56;67.90;;;26.95;;
25279;SDS011;13225;47.804;12.116;2022-11-15T16:04:22;156.18;;;55.05;;
25279;SDS011;13225;47.804;12.116;2022-11-15T16:06:49;157.85;;;53.72;;
25279;SDS011;13225;47.804;12.116;2022-11-15T16:12:08;84.72;;;30.02;;
25279;SDS011;13225;47.804;12.116;2022-11-15T16:14:34;88.57;;;32.03;;
25279;SDS011;13225;47.804;12.116;2022-11-15T16:16:59;110.60;;;39.10;;
25279;SDS011;13225;47.804;12.116;2022-11-15T16:19:25;85.22;;;34.00;;
25279;SDS011;13225;47.804;12.116;2022-11-15T16:21:51;62.95;;;23.73;;
25279;SDS011;13225;47.804;12.116;2022-11-15T16:24:18;38.33;;;15.48;;
25279;SDS011;13225;47.804;12.116;2022-11-15T16:26:44;24.35;;;11.13;;
25279;SDS011;13225;47.804;12.116;2022-11-15T16:29:11;23.25;;;11.63;;
25279;SDS011;13225;47.804;12.116;2022-11-15T16:31:37;18.50;;;10.18;;
25279;SDS011;13225;47.804;12.116;2022-11-15T16:34:03;26.58;;;11.32;;
25279;SDS011;13225;47.804;12.116;2022-11-15T16:36:29;22.38;;;11.52;;
25279;SDS011;13225;47.804;12.116;2022-11-15T16:38:57;27.60;;;12.50;;
25279;SDS011;13225;47.804;12.116;2022-11-15T16:41:24;26.50;;;11.27;;
25279;SDS011;13225;47.804;12.116;2022-11-15T16:43:50;23.20;;;11.70;;
25279;SDS011;13225;47.804;12.116;2022-11-15T16:46:20;23.13;;;11.55;;
25279;SDS011;13225;47.804;12.116;2022-11-15T16:48:45;23.40;;;11.18;;
25279;SDS011;13225;47.804;12.116;2022-11-15T16:51:12;22.30;;;11.43;;
25279;SDS011;13225;47.804;12.116;2022-11-15T16:53:38;32.00;;;13.90;;
25279;SDS011;13225;47.804;12.116;2022-11-15T16:56:11;36.70;;;16.45;;
25279;SDS011;13225;47.804;12.116;2022-11-15T16:58:52;31.98;;;15.60;;
25279;SDS011;13225;47.804;12.116;2022-11-15T17:01:22;28.50;;;12.32;;